sensor_id;sensor_type;location;lat;lon;timestamp;P1;durP1;ratioP1;P2;durP2;ratioP2
10729;SDS011;5416;59.258;18.128;2023-06-14T00:01:48;4.90;;;4.70;;
10729;SDS011;5416;59.258;18.128;2023-06-14T00:04:15;4.30;;;4.20;;
10729;SDS011;5416;59.258;18.128;2023-06-14T00:06:43;4.03;;;3.92;;
10729;SDS011;5416;59.258;18.128;2023-06-14T00:09:11;5.00;;;4.80;;
10729;SDS011;5416;59.258;18.128;2023-06-14T00:11:38;4.95;;;4.75;;
10729;SDS011;5416;59.258;18.128;2023-06-14T00:14:07;4.35;;;4.25;;
10729;SDS011;5416;59.258;18.128;2023-06-14T00:16:34;4.40;;;4.30;;
10729;SDS011;5416;59.258;18.128;2023-06-14T00:19:02;4.43;;;4.32;;
10729;SDS011;5416;59.258;18.128;2023-06-14T00:21:29;5.40;;;5.20;;
10729;SDS011;5416;59.258;18.128;2023-06-14T00:23:57;4.47;;;4.38;;
10729;SDS011;5416;59.258;18.128;2023-06-14T00:26:24;4.88;;;4.68;;
10729;SDS011;5416;59.258;18.128;2023-06-14T00:28:52;4.32;;;4.22;;
10729;SDS011;5416;59.258;18.128;2023-06-14T00:31:21;4.60;;;4.40;;
10729;SDS011;5416;59.258;18.128;2023-06-14T00:33:48;4.95;;;4.75;;
10729;SDS011;5416;59.258;18.128;2023-06-14T00:36:15;4.53;;;4.43;;
10729;SDS011;5416;59.258;18.128;2023-06-14T00:38:42;4.07;;;3.97;;
10729;SDS011;5416;59.258;18.128;2023-06-14T00:41:10;5.10;;;4.90;;
10729;SDS011;5416;59.258;18.128;2023-06-14T00:43:37;4.90;;;4.70;;
10729;SDS011;5416;59.258;18.128;2023-06-14T00:46:04;4.88;;;4.68;;
10729;SDS011;5416;59.258;18.128;2023-06-14T00:48:33;4.20;;;4.10;;
10729;SDS011;5416;59.258;18.128;2023-06-14T00:51:01;3.72;;;3.63;;
10729;SDS011;5416;59.258;18.128;2023-06-14T00:53:29;4.80;;;4.60;;
10729;SDS011;5416;59.258;18.128;2023-06-14T00:55:59;4.95;;;4.75;;
10729;SDS011;5416;59.258;18.128;2023-06-14T00:58:26;4.40;;;4.30;;
10729;SDS011;5416;59.258;18.128;2023-06-14T01:00:53;3.70;;;3.60;;
10729;SDS011;5416;59.258;18.128;2023-06-14T01:03:21;4.47;;;4.38;;
10729;SDS011;5416;59.258;18.128;2023-06-14T01:05:50;3.93;;;3.83;;
10729;SDS011;5416;59.258;18.128;2023-06-14T01:08:22;4.75;;;4.55;;
10729;SDS011;5416;59.258;18.128;2023-06-14T01:10:52;4.13;;;4.03;;
10729;SDS011;5416;59.258;18.128;2023-06-14T01:13:23;4.10;;;4.00;;
10729;SDS011;5416;59.258;18.128;2023-06-14T01:15:53;3.92;;;3.83;;
10729;SDS011;5416;59.258;18.128;2023-06-14T01:18:21;4.78;;;4.60;;
10729;SDS011;5416;59.258;18.128;2023-06-14T01:20:52;4.28;;;4.18;;
10729;SDS011;5416;59.258;18.128;2023-06-14T01:23:22;4.35;;;4.25;;
10729;SDS011;5416;59.258;18.128;2023-06-14T01:25:50;4.50;;;4.40;;
10729;SDS011;5416;59.258;18.128;2023-06-14T01:28:19;4.43;;;4.32;;
10729;SDS011;5416;59.258;18.128;2023-06-14T01:30:48;4.30;;;4.20;;
10729;SDS011;5416;59.258;18.128;2023-06-14T01:33:17;4.03;;;3.92;;
10729;SDS011;5416;59.258;18.128;2023-06-14T01:35:46;4.38;;;4.28;;
10729;SDS011;5416;59.258;18.128;2023-06-14T01:38:15;4.10;;;4.00;;
10729;SDS011;5416;59.258;18.128;2023-06-14T01:40:44;4.50;;;4.40;;
10729;SDS011;5416;59.258;18.128;2023-06-14T01:43:11;4.50;;;4.40;;
10729;SDS011;5416;59.258;18.128;2023-06-14T01:45:40;4.20;;;4.10;;
10729;SDS011;5416;59.258;18.128;2023-06-14T01:48:08;4.15;;;4.05;;
10729;SDS011;5416;59.258;18.128;2023-06-14T01:50:35;4.07;;;3.97;;
10729;SDS011;5416;59.258;18.128;2023-06-14T01:53:03;3.78;;;3.67;;
10729;SDS011;5416;59.258;18.128;2023-06-14T01:55:30;4.93;;;4.72;;
10729;SDS011;5416;59.258;18.128;2023-06-14T01:58:03;4.80;;;4.60;;
10729;SDS011;5416;59.258;18.128;2023-06-14T02:00:31;4.10;;;4.00;;
10729;SDS011;5416;59.258;18.128;2023-06-14T02:02:58;4.00;;;3.90;;
10729;SDS011;5416;59.258;18.128;2023-06-14T02:05:26;4.27;;;4.17;;
10729;SDS011;5416;59.258;18.128;2023-06-14T02:07:53;5.03;;;4.82;;
10729;SDS011;5416;59.258;18.128;2023-06-14T02:10:20;4.90;;;4.70;;
10729;SDS011;5416;59.258;18.128;2023-06-14T02:12:48;4.22;;;4.13;;
10729;SDS011;5416;59.258;18.128;2023-06-14T02:15:17;4.07;;;3.97;;
10729;SDS011;5416;59.258;18.128;2023-06-14T02:17:44;4.32;;;4.22;;
10729;SDS011;5416;59.258;18.128;2023-06-14T02:20:13;4.57;;;4.47;;
10729;SDS011;5416;59.258;18.128;2023-06-14T02:22:40;4.53;;;4.43;;
10729;SDS011;5416;59.258;18.128;2023-06-14T02:25:07;4.00;;;3.90;;
10729;SDS011;5416;59.258;18.128;2023-06-14T02:27:35;4.30;;;4.20;;
10729;SDS011;5416;59.258;18.128;2023-06-14T02:30:02;4.40;;;4.30;;
10729;SDS011;5416;59.258;18.128;2023-06-14T02:32:31;4.47;;;4.35;;
10729;SDS011;5416;59.258;18.128;2023-06-14T02:34:59;4.23;;;4.13;;
10729;SDS011;5416;59.258;18.128;2023-06-14T02:37:26;4.07;;;3.97;;
10729;SDS011;5416;59.258;18.128;2023-06-14T02:39:53;4.30;;;4.20;;
10729;SDS011;5416;59.258;18.128;2023-06-14T02:42:21;5.03;;;4.82;;
10729;SDS011;5416;59.258;18.128;2023-06-14T02:44:48;4.47;;;4.38;;
10729;SDS011;5416;59.258;18.128;2023-06-14T02:47:16;4.00;;;3.90;;
10729;SDS011;5416;59.258;18.128;2023-06-14T02:49:45;4.45;;;4.35;;
10729;SDS011;5416;59.258;18.128;2023-06-14T02:52:12;4.15;;;4.05;;
10729;SDS011;5416;59.258;18.128;2023-06-14T02:54:40;4.32;;;4.22;;
10729;SDS011;5416;59.258;18.128;2023-06-14T02:57:07;3.90;;;3.80;;
10729;SDS011;5416;59.258;18.128;2023-06-14T02:59:35;4.78;;;4.60;;
10729;SDS011;5416;59.258;18.128;2023-06-14T03:02:03;4.30;;;4.20;;
10729;SDS011;5416;59.258;18.128;2023-06-14T03:04:30;4.07;;;3.97;;
10729;SDS011;5416;59.258;18.128;2023-06-14T03:07:04;5.00;;;4.80;;
10729;SDS011;5416;59.258;18.128;2023-06-14T03:09:34;4.27;;;4.17;;
10729;SDS011;5416;59.258;18.128;2023-06-14T03:12:02;4.00;;;3.90;;
10729;SDS011;5416;59.258;18.128;2023-06-14T03:14:29;4.45;;;4.35;;
10729;SDS011;5416;59.258;18.128;2023-06-14T03:16:56;4.20;;;4.10;;
10729;SDS011;5416;59.258;18.128;2023-06-14T03:19:25;4.35;;;4.25;;
10729;SDS011;5416;59.258;18.128;2023-06-14T03:21:52;4.07;;;3.97;;
10729;SDS011;5416;59.258;18.128;2023-06-14T03:24:23;4.38;;;4.28;;
10729;SDS011;5416;59.258;18.128;2023-06-14T03:26:52;4.00;;;3.90;;
10729;SDS011;5416;59.258;18.128;2023-06-14T03:29:20;4.53;;;4.43;;
10729;SDS011;5416;59.258;18.128;2023-06-14T03:31:57;4.22;;;4.13;;
10729;SDS011;5416;59.258;18.128;2023-06-14T03:34:24;4.90;;;4.70;;
10729;SDS011;5416;59.258;18.128;2023-06-14T03:36:51;4.00;;;3.90;;
10729;SDS011;5416;59.258;18.128;2023-06-14T03:39:19;4.45;;;4.35;;
10729;SDS011;5416;59.258;18.128;2023-06-14T03:41:48;4.50;;;4.40;;
10729;SDS011;5416;59.258;18.128;2023-06-14T03:44:16;4.15;;;4.05;;
10729;SDS011;5416;59.258;18.128;2023-06-14T03:46:43;4.45;;;4.35;;
10729;SDS011;5416;59.258;18.128;2023-06-14T03:49:11;4.35;;;4.25;;
10729;SDS011;5416;59.258;18.128;2023-06-14T03:51:38;5.05;;;4.85;;
10729;SDS011;5416;59.258;18.128;2023-06-14T03:54:06;4.30;;;4.20;;
10729;SDS011;5416;59.258;18.128;2023-06-14T03:56:33;4.30;;;4.20;;
10729;SDS011;5416;59.258;18.128;2023-06-14T03:59:02;4.00;;;3.90;;
10729;SDS011;5416;59.258;18.128;2023-06-14T04:01:30;4.50;;;4.40;;
10729;SDS011;5416;59.258;18.128;2023-06-14T04:03:58;4.38;;;4.28;;
10729;SDS011;5416;59.258;18.128;2023-06-14T04:06:26;4.82;;;4.63;;
10729;SDS011;5416;59.258;18.128;2023-06-14T04:08:57;3.80;;;3.70;;
10729;SDS011;5416;59.258;18.128;2023-06-14T04:11:27;4.68;;;4.50;;
10729;SDS011;5416;59.258;18.128;2023-06-14T04:13:54;4.07;;;3.97;;
10729;SDS011;5416;59.258;18.128;2023-06-14T04:16:23;4.72;;;4.55;;
10729;SDS011;5416;59.258;18.128;2023-06-14T04:18:51;3.92;;;3.83;;
10729;SDS011;5416;59.258;18.128;2023-06-14T04:21:18;4.07;;;3.97;;
10729;SDS011;5416;59.258;18.128;2023-06-14T04:23:46;3.70;;;3.60;;
10729;SDS011;5416;59.258;18.128;2023-06-14T04:26:13;3.93;;;3.83;;
10729;SDS011;5416;59.258;18.128;2023-06-14T04:28:41;4.60;;;4.50;;
10729;SDS011;5416;59.258;18.128;2023-06-14T04:31:12;4.18;;;4.07;;
10729;SDS011;5416;59.258;18.128;2023-06-14T04:33:40;4.85;;;4.65;;
10729;SDS011;5416;59.258;18.128;2023-06-14T04:36:10;4.25;;;4.15;;
10729;SDS011;5416;59.258;18.128;2023-06-14T04:38:38;3.95;;;3.85;;
10729;SDS011;5416;59.258;18.128;2023-06-14T04:41:06;4.55;;;4.45;;
10729;SDS011;5416;59.258;18.128;2023-06-14T04:43:37;4.27;;;4.17;;
10729;SDS011;5416;59.258;18.128;2023-06-14T04:46:04;4.00;;;3.90;;
10729;SDS011;5416;59.258;18.128;2023-06-14T04:48:34;4.20;;;4.10;;
10729;SDS011;5416;59.258;18.128;2023-06-14T04:51:04;4.25;;;4.15;;
10729;SDS011;5416;59.258;18.128;2023-06-14T04:53:31;4.30;;;4.20;;
10729;SDS011;5416;59.258;18.128;2023-06-14T04:55:59;4.40;;;4.30;;
10729;SDS011;5416;59.258;18.128;2023-06-14T04:58:28;3.78;;;3.67;;
10729;SDS011;5416;59.258;18.128;2023-06-14T05:00:55;4.00;;;3.90;;
10729;SDS011;5416;59.258;18.128;2023-06-14T05:03:24;4.50;;;4.30;;
10729;SDS011;5416;59.258;18.128;2023-06-14T05:05:52;3.80;;;3.70;;
10729;SDS011;5416;59.258;18.128;2023-06-14T05:08:21;4.22;;;4.13;;
10729;SDS011;5416;59.258;18.128;2023-06-14T05:10:49;3.95;;;3.85;;
10729;SDS011;5416;59.258;18.128;2023-06-14T05:13:17;4.20;;;4.10;;
10729;SDS011;5416;59.258;18.128;2023-06-14T05:15:44;4.25;;;4.15;;
10729;SDS011;5416;59.258;18.128;2023-06-14T05:18:12;3.97;;;3.88;;
10729;SDS011;5416;59.258;18.128;2023-06-14T05:20:40;3.90;;;3.80;;
10729;SDS011;5416;59.258;18.128;2023-06-14T05:23:08;4.20;;;4.10;;
10729;SDS011;5416;59.258;18.128;2023-06-14T05:25:41;4.05;;;3.95;;
10729;SDS011;5416;59.258;18.128;2023-06-14T05:28:08;4.43;;;4.30;;
10729;SDS011;5416;59.258;18.128;2023-06-14T05:30:37;4.30;;;4.20;;
10729;SDS011;5416;59.258;18.128;2023-06-14T05:33:04;3.88;;;3.78;;
10729;SDS011;5416;59.258;18.128;2023-06-14T05:35:32;3.80;;;3.70;;
10729;SDS011;5416;59.258;18.128;2023-06-14T05:37:59;3.88;;;3.78;;
10729;SDS011;5416;59.258;18.128;2023-06-14T05:40:26;4.10;;;4.00;;
10729;SDS011;5416;59.258;18.128;2023-06-14T05:42:55;4.23;;;4.13;;
10729;SDS011;5416;59.258;18.128;2023-06-14T05:45:22;3.85;;;3.75;;
10729;SDS011;5416;59.258;18.128;2023-06-14T05:47:50;3.63;;;3.53;;
10729;SDS011;5416;59.258;18.128;2023-06-14T05:50:17;3.78;;;3.67;;
10729;SDS011;5416;59.258;18.128;2023-06-14T05:52:45;3.78;;;3.67;;
10729;SDS011;5416;59.258;18.128;2023-06-14T05:55:12;3.58;;;3.47;;
10729;SDS011;5416;59.258;18.128;2023-06-14T05:57:39;4.20;;;4.10;;
10729;SDS011;5416;59.258;18.128;2023-06-14T06:00:09;4.10;;;4.00;;
10729;SDS011;5416;59.258;18.128;2023-06-14T06:02:39;4.43;;;4.33;;
10729;SDS011;5416;59.258;18.128;2023-06-14T06:05:07;4.00;;;3.90;;
10729;SDS011;5416;59.258;18.128;2023-06-14T06:07:35;4.65;;;4.45;;
10729;SDS011;5416;59.258;18.128;2023-06-14T06:10:02;4.32;;;4.22;;
10729;SDS011;5416;59.258;18.128;2023-06-14T06:12:30;3.90;;;3.80;;
10729;SDS011;5416;59.258;18.128;2023-06-14T06:14:57;3.70;;;3.60;;
10729;SDS011;5416;59.258;18.128;2023-06-14T06:17:26;3.97;;;3.88;;
10729;SDS011;5416;59.258;18.128;2023-06-14T06:19:53;3.90;;;3.80;;
10729;SDS011;5416;59.258;18.128;2023-06-14T06:22:21;4.55;;;4.45;;
10729;SDS011;5416;59.258;18.128;2023-06-14T06:24:48;4.55;;;4.35;;
10729;SDS011;5416;59.258;18.128;2023-06-14T06:27:16;4.20;;;4.10;;
10729;SDS011;5416;59.258;18.128;2023-06-14T06:29:44;3.92;;;3.83;;
10729;SDS011;5416;59.258;18.128;2023-06-14T06:32:11;4.07;;;3.97;;
10729;SDS011;5416;59.258;18.128;2023-06-14T06:34:40;4.03;;;3.93;;
10729;SDS011;5416;59.258;18.128;2023-06-14T06:37:07;3.92;;;3.83;;
10729;SDS011;5416;59.258;18.128;2023-06-14T06:39:34;3.65;;;3.55;;
10729;SDS011;5416;59.258;18.128;2023-06-14T06:42:02;4.00;;;3.90;;
10729;SDS011;5416;59.258;18.128;2023-06-14T06:44:30;3.80;;;3.70;;
10729;SDS011;5416;59.258;18.128;2023-06-14T06:46:57;3.80;;;3.70;;
10729;SDS011;5416;59.258;18.128;2023-06-14T06:49:25;3.70;;;3.60;;
10729;SDS011;5416;59.258;18.128;2023-06-14T06:52:03;3.95;;;3.85;;
10729;SDS011;5416;59.258;18.128;2023-06-14T06:54:30;4.18;;;3.92;;
10729;SDS011;5416;59.258;18.128;2023-06-14T06:56:58;4.15;;;4.05;;
10729;SDS011;5416;59.258;18.128;2023-06-14T06:59:25;3.83;;;3.72;;
10729;SDS011;5416;59.258;18.128;2023-06-14T07:01:53;3.80;;;3.70;;
10729;SDS011;5416;59.258;18.128;2023-06-14T07:04:20;3.60;;;3.50;;
10729;SDS011;5416;59.258;18.128;2023-06-14T07:06:47;4.10;;;4.00;;
10729;SDS011;5416;59.258;18.128;2023-06-14T07:09:16;4.07;;;3.97;;
10729;SDS011;5416;59.258;18.128;2023-06-14T07:11:46;4.05;;;3.95;;
10729;SDS011;5416;59.258;18.128;2023-06-14T07:14:14;3.83;;;3.72;;
10729;SDS011;5416;59.258;18.128;2023-06-14T07:16:41;3.80;;;3.70;;
10729;SDS011;5416;59.258;18.128;2023-06-14T07:19:09;4.00;;;3.90;;
10729;SDS011;5416;59.258;18.128;2023-06-14T07:21:36;3.58;;;3.47;;
10729;SDS011;5416;59.258;18.128;2023-06-14T07:24:05;3.63;;;3.53;;
10729;SDS011;5416;59.258;18.128;2023-06-14T07:26:34;3.30;;;3.20;;
10729;SDS011;5416;59.258;18.128;2023-06-14T07:29:01;3.90;;;3.80;;
10729;SDS011;5416;59.258;18.128;2023-06-14T07:31:29;3.88;;;3.78;;
10729;SDS011;5416;59.258;18.128;2023-06-14T07:33:56;3.85;;;3.75;;
10729;SDS011;5416;59.258;18.128;2023-06-14T07:36:24;3.60;;;3.50;;
10729;SDS011;5416;59.258;18.128;2023-06-14T07:38:51;3.75;;;3.65;;
10729;SDS011;5416;59.258;18.128;2023-06-14T07:41:18;3.63;;;3.53;;
10729;SDS011;5416;59.258;18.128;2023-06-14T07:43:47;3.40;;;3.30;;
10729;SDS011;5416;59.258;18.128;2023-06-14T07:46:14;3.70;;;3.60;;
10729;SDS011;5416;59.258;18.128;2023-06-14T07:48:41;3.72;;;3.63;;
10729;SDS011;5416;59.258;18.128;2023-06-14T07:51:09;3.58;;;3.47;;
10729;SDS011;5416;59.258;18.128;2023-06-14T07:53:36;3.72;;;3.63;;
10729;SDS011;5416;59.258;18.128;2023-06-14T07:56:03;3.88;;;3.78;;
10729;SDS011;5416;59.258;18.128;2023-06-14T07:58:30;3.70;;;3.60;;
10729;SDS011;5416;59.258;18.128;2023-06-14T08:00:59;3.53;;;3.42;;
10729;SDS011;5416;59.258;18.128;2023-06-14T08:03:31;3.50;;;3.40;;
10729;SDS011;5416;59.258;18.128;2023-06-14T08:05:58;3.80;;;3.60;;
10729;SDS011;5416;59.258;18.128;2023-06-14T08:08:25;3.60;;;3.50;;
10729;SDS011;5416;59.258;18.128;2023-06-14T08:10:53;3.70;;;3.60;;
10729;SDS011;5416;59.258;18.128;2023-06-14T08:13:20;3.30;;;3.20;;
10729;SDS011;5416;59.258;18.128;2023-06-14T08:15:47;3.30;;;3.20;;
10729;SDS011;5416;59.258;18.128;2023-06-14T08:18:17;3.30;;;3.20;;
10729;SDS011;5416;59.258;18.128;2023-06-14T08:20:44;3.30;;;3.20;;
10729;SDS011;5416;59.258;18.128;2023-06-14T08:23:11;3.20;;;3.10;;
10729;SDS011;5416;59.258;18.128;2023-06-14T08:25:38;3.13;;;3.03;;
10729;SDS011;5416;59.258;18.128;2023-06-14T08:28:06;3.00;;;2.90;;
10729;SDS011;5416;59.258;18.128;2023-06-14T08:30:33;2.95;;;2.85;;
10729;SDS011;5416;59.258;18.128;2023-06-14T08:33:00;3.20;;;3.10;;
10729;SDS011;5416;59.258;18.128;2023-06-14T08:35:29;3.30;;;3.20;;
10729;SDS011;5416;59.258;18.128;2023-06-14T08:37:56;3.22;;;3.13;;
10729;SDS011;5416;59.258;18.128;2023-06-14T08:40:24;3.00;;;2.90;;
10729;SDS011;5416;59.258;18.128;2023-06-14T08:42:51;3.10;;;3.00;;
10729;SDS011;5416;59.258;18.128;2023-06-14T08:45:19;3.10;;;3.00;;
10729;SDS011;5416;59.258;18.128;2023-06-14T08:47:47;3.28;;;3.17;;
10729;SDS011;5416;59.258;18.128;2023-06-14T08:50:18;3.20;;;3.10;;
10729;SDS011;5416;59.258;18.128;2023-06-14T08:52:48;3.10;;;3.00;;
10729;SDS011;5416;59.258;18.128;2023-06-14T08:55:16;3.10;;;3.00;;
10729;SDS011;5416;59.258;18.128;2023-06-14T08:57:45;3.10;;;3.00;;
10729;SDS011;5416;59.258;18.128;2023-06-14T09:00:14;3.30;;;3.20;;
10729;SDS011;5416;59.258;18.128;2023-06-14T09:02:42;3.10;;;3.00;;
10729;SDS011;5416;59.258;18.128;2023-06-14T09:05:10;3.38;;;3.28;;
10729;SDS011;5416;59.258;18.128;2023-06-14T09:07:38;3.20;;;3.10;;
10729;SDS011;5416;59.258;18.128;2023-06-14T09:10:09;3.33;;;3.22;;
10729;SDS011;5416;59.258;18.128;2023-06-14T09:12:36;3.10;;;3.00;;
10729;SDS011;5416;59.258;18.128;2023-06-14T09:15:05;3.10;;;3.00;;
10729;SDS011;5416;59.258;18.128;2023-06-14T09:17:33;3.13;;;3.03;;
10729;SDS011;5416;59.258;18.128;2023-06-14T09:20:01;3.60;;;3.50;;
10729;SDS011;5416;59.258;18.128;2023-06-14T09:22:34;2.80;;;2.70;;
10729;SDS011;5416;59.258;18.128;2023-06-14T09:25:01;2.70;;;2.60;;
10729;SDS011;5416;59.258;18.128;2023-06-14T09:27:32;2.50;;;2.40;;
10729;SDS011;5416;59.258;18.128;2023-06-14T09:30:00;2.40;;;2.30;;
10729;SDS011;5416;59.258;18.128;2023-06-14T09:32:28;2.20;;;2.10;;
10729;SDS011;5416;59.258;18.128;2023-06-14T09:34:55;2.40;;;2.30;;
10729;SDS011;5416;59.258;18.128;2023-06-14T09:37:26;2.60;;;2.50;;
10729;SDS011;5416;59.258;18.128;2023-06-14T09:39:54;2.40;;;2.30;;
10729;SDS011;5416;59.258;18.128;2023-06-14T09:42:22;2.33;;;2.22;;
10729;SDS011;5416;59.258;18.128;2023-06-14T09:44:53;2.33;;;2.22;;
10729;SDS011;5416;59.258;18.128;2023-06-14T09:47:20;2.33;;;2.22;;
10729;SDS011;5416;59.258;18.128;2023-06-14T09:49:48;2.35;;;2.25;;
10729;SDS011;5416;59.258;18.128;2023-06-14T09:52:16;2.53;;;2.42;;
10729;SDS011;5416;59.258;18.128;2023-06-14T09:54:43;2.40;;;2.30;;
10729;SDS011;5416;59.258;18.128;2023-06-14T09:57:13;2.30;;;2.20;;
10729;SDS011;5416;59.258;18.128;2023-06-14T09:59:41;2.47;;;2.38;;
10729;SDS011;5416;59.258;18.128;2023-06-14T10:02:11;2.40;;;2.30;;
10729;SDS011;5416;59.258;18.128;2023-06-14T10:04:39;2.50;;;2.40;;
10729;SDS011;5416;59.258;18.128;2023-06-14T10:07:08;2.78;;;2.67;;
10729;SDS011;5416;59.258;18.128;2023-06-14T10:09:35;2.70;;;2.60;;
10729;SDS011;5416;59.258;18.128;2023-06-14T10:12:05;3.10;;;3.00;;
10729;SDS011;5416;59.258;18.128;2023-06-14T10:14:32;2.53;;;2.42;;
10729;SDS011;5416;59.258;18.128;2023-06-14T10:17:00;2.70;;;2.60;;
10729;SDS011;5416;59.258;18.128;2023-06-14T10:19:32;2.85;;;2.75;;
10729;SDS011;5416;59.258;18.128;2023-06-14T10:22:01;2.70;;;2.60;;
10729;SDS011;5416;59.258;18.128;2023-06-14T10:24:30;2.77;;;2.67;;
10729;SDS011;5416;59.258;18.128;2023-06-14T10:26:59;3.20;;;3.10;;
10729;SDS011;5416;59.258;18.128;2023-06-14T10:29:27;3.03;;;2.92;;
10729;SDS011;5416;59.258;18.128;2023-06-14T10:31:57;3.30;;;3.20;;
10729;SDS011;5416;59.258;18.128;2023-06-14T10:34:25;3.10;;;3.00;;
10729;SDS011;5416;59.258;18.128;2023-06-14T10:37:03;2.90;;;2.80;;
10729;SDS011;5416;59.258;18.128;2023-06-14T10:39:31;3.20;;;3.10;;
10729;SDS011;5416;59.258;18.128;2023-06-14T10:42:01;3.03;;;2.92;;
10729;SDS011;5416;59.258;18.128;2023-06-14T10:44:37;3.00;;;2.90;;
10729;SDS011;5416;59.258;18.128;2023-06-14T10:47:25;3.00;;;2.90;;
10729;SDS011;5416;59.258;18.128;2023-06-14T10:49:53;3.40;;;3.30;;
10729;SDS011;5416;59.258;18.128;2023-06-14T10:52:23;3.13;;;3.03;;
10729;SDS011;5416;59.258;18.128;2023-06-14T10:55:03;3.08;;;2.97;;
10729;SDS011;5416;59.258;18.128;2023-06-14T10:57:31;3.15;;;3.05;;
10729;SDS011;5416;59.258;18.128;2023-06-14T10:59:59;3.10;;;3.00;;
10729;SDS011;5416;59.258;18.128;2023-06-14T11:05:23;3.10;;;3.00;;
10729;SDS011;5416;59.258;18.128;2023-06-14T11:07:55;2.80;;;2.70;;
10729;SDS011;5416;59.258;18.128;2023-06-14T11:10:26;2.90;;;2.80;;
10729;SDS011;5416;59.258;18.128;2023-06-14T11:12:57;3.10;;;3.00;;
10729;SDS011;5416;59.258;18.128;2023-06-14T11:15:27;2.92;;;2.83;;
10729;SDS011;5416;59.258;18.128;2023-06-14T11:17:55;3.08;;;2.97;;
10729;SDS011;5416;59.258;18.128;2023-06-14T11:20:24;3.25;;;3.15;;
10729;SDS011;5416;59.258;18.128;2023-06-14T11:22:52;3.30;;;3.20;;
10729;SDS011;5416;59.258;18.128;2023-06-14T11:25:21;3.07;;;2.97;;
10729;SDS011;5416;59.258;18.128;2023-06-14T11:27:48;3.25;;;3.15;;
10729;SDS011;5416;59.258;18.128;2023-06-14T11:30:16;3.00;;;2.90;;
10729;SDS011;5416;59.258;18.128;2023-06-14T11:32:45;3.08;;;2.97;;
10729;SDS011;5416;59.258;18.128;2023-06-14T11:35:13;2.92;;;2.83;;
10729;SDS011;5416;59.258;18.128;2023-06-14T11:37:41;3.00;;;2.90;;
10729;SDS011;5416;59.258;18.128;2023-06-14T11:40:10;3.10;;;3.00;;
10729;SDS011;5416;59.258;18.128;2023-06-14T11:42:39;3.20;;;3.10;;
10729;SDS011;5416;59.258;18.128;2023-06-14T11:45:07;3.20;;;3.10;;
10729;SDS011;5416;59.258;18.128;2023-06-14T11:47:35;3.08;;;2.97;;
10729;SDS011;5416;59.258;18.128;2023-06-14T11:50:03;3.10;;;3.00;;
10729;SDS011;5416;59.258;18.128;2023-06-14T11:52:31;3.00;;;2.90;;
10729;SDS011;5416;59.258;18.128;2023-06-14T11:54:58;3.03;;;2.93;;
10729;SDS011;5416;59.258;18.128;2023-06-14T11:57:26;2.90;;;2.80;;
10729;SDS011;5416;59.258;18.128;2023-06-14T11:59:54;3.20;;;3.10;;
10729;SDS011;5416;59.258;18.128;2023-06-14T12:02:22;2.92;;;2.83;;
10729;SDS011;5416;59.258;18.128;2023-06-14T12:04:50;3.10;;;3.00;;
10729;SDS011;5416;59.258;18.128;2023-06-14T12:07:18;3.28;;;3.17;;
10729;SDS011;5416;59.258;18.128;2023-06-14T12:12:28;3.47;;;3.38;;
10729;SDS011;5416;59.258;18.128;2023-06-14T12:14:57;3.30;;;3.20;;
10729;SDS011;5416;59.258;18.128;2023-06-14T12:17:25;4.13;;;4.03;;
10729;SDS011;5416;59.258;18.128;2023-06-14T12:19:55;3.90;;;3.80;;
10729;SDS011;5416;59.258;18.128;2023-06-14T12:22:22;3.80;;;3.70;;
10729;SDS011;5416;59.258;18.128;2023-06-14T12:24:49;3.80;;;3.70;;
10729;SDS011;5416;59.258;18.128;2023-06-14T12:27:17;3.20;;;3.10;;
10729;SDS011;5416;59.258;18.128;2023-06-14T12:29:45;3.30;;;3.20;;
10729;SDS011;5416;59.258;18.128;2023-06-14T12:32:14;3.30;;;3.20;;
10729;SDS011;5416;59.258;18.128;2023-06-14T12:34:41;3.40;;;3.30;;
10729;SDS011;5416;59.258;18.128;2023-06-14T12:37:08;3.40;;;3.30;;
10729;SDS011;5416;59.258;18.128;2023-06-14T12:39:35;3.67;;;3.57;;
10729;SDS011;5416;59.258;18.128;2023-06-14T12:42:04;3.70;;;3.60;;
10729;SDS011;5416;59.258;18.128;2023-06-14T12:44:32;4.10;;;4.00;;
10729;SDS011;5416;59.258;18.128;2023-06-14T12:47:05;4.20;;;4.10;;
10729;SDS011;5416;59.258;18.128;2023-06-14T12:49:34;3.95;;;3.85;;
10729;SDS011;5416;59.258;18.128;2023-06-14T12:52:01;4.20;;;4.10;;
10729;SDS011;5416;59.258;18.128;2023-06-14T12:54:29;3.70;;;3.60;;
10729;SDS011;5416;59.258;18.128;2023-06-14T12:56:56;3.60;;;3.50;;
10729;SDS011;5416;59.258;18.128;2023-06-14T12:59:23;3.60;;;3.50;;
10729;SDS011;5416;59.258;18.128;2023-06-14T13:01:51;3.92;;;3.83;;
10729;SDS011;5416;59.258;18.128;2023-06-14T13:04:19;4.05;;;3.95;;
10729;SDS011;5416;59.258;18.128;2023-06-14T13:06:47;4.05;;;3.95;;
10729;SDS011;5416;59.258;18.128;2023-06-14T13:09:15;4.20;;;4.10;;
10729;SDS011;5416;59.258;18.128;2023-06-14T13:11:42;4.20;;;4.10;;
10729;SDS011;5416;59.258;18.128;2023-06-14T13:14:12;4.38;;;4.28;;
10729;SDS011;5416;59.258;18.128;2023-06-14T13:16:39;4.35;;;4.20;;
10729;SDS011;5416;59.258;18.128;2023-06-14T13:19:06;4.30;;;4.20;;
10729;SDS011;5416;59.258;18.128;2023-06-14T13:21:34;4.13;;;4.03;;
10729;SDS011;5416;59.258;18.128;2023-06-14T13:24:03;4.53;;;4.43;;
10729;SDS011;5416;59.258;18.128;2023-06-14T13:26:30;4.28;;;4.18;;
10729;SDS011;5416;59.258;18.128;2023-06-14T13:28:57;4.43;;;4.30;;
10729;SDS011;5416;59.258;18.128;2023-06-14T13:31:25;4.38;;;4.28;;
10729;SDS011;5416;59.258;18.128;2023-06-14T13:33:52;4.25;;;4.15;;
10729;SDS011;5416;59.258;18.128;2023-06-14T13:36:19;4.15;;;4.05;;
10729;SDS011;5416;59.258;18.128;2023-06-14T13:38:47;4.30;;;4.20;;
10729;SDS011;5416;59.258;18.128;2023-06-14T13:41:16;4.38;;;4.28;;
10729;SDS011;5416;59.258;18.128;2023-06-14T13:43:43;4.10;;;4.00;;
10729;SDS011;5416;59.258;18.128;2023-06-14T13:46:10;4.10;;;4.00;;
10729;SDS011;5416;59.258;18.128;2023-06-14T13:48:37;4.15;;;4.05;;
10729;SDS011;5416;59.258;18.128;2023-06-14T13:51:05;4.43;;;4.32;;
10729;SDS011;5416;59.258;18.128;2023-06-14T13:53:32;4.18;;;4.07;;
10729;SDS011;5416;59.258;18.128;2023-06-14T13:55:59;4.60;;;4.40;;
10729;SDS011;5416;59.258;18.128;2023-06-14T13:58:28;3.92;;;3.83;;
10729;SDS011;5416;59.258;18.128;2023-06-14T14:00:55;4.30;;;4.20;;
10729;SDS011;5416;59.258;18.128;2023-06-14T14:03:24;4.22;;;4.13;;
10729;SDS011;5416;59.258;18.128;2023-06-14T14:05:52;4.05;;;3.95;;
10729;SDS011;5416;59.258;18.128;2023-06-14T14:08:19;4.18;;;4.07;;
10729;SDS011;5416;59.258;18.128;2023-06-14T14:10:46;3.90;;;3.80;;
10729;SDS011;5416;59.258;18.128;2023-06-14T14:13:13;4.18;;;4.07;;
10729;SDS011;5416;59.258;18.128;2023-06-14T14:15:42;4.38;;;4.28;;
10729;SDS011;5416;59.258;18.128;2023-06-14T14:18:09;4.32;;;4.22;;
10729;SDS011;5416;59.258;18.128;2023-06-14T14:20:37;4.03;;;3.92;;
10729;SDS011;5416;59.258;18.128;2023-06-14T14:23:04;4.00;;;3.90;;
10729;SDS011;5416;59.258;18.128;2023-06-14T14:25:32;4.80;;;4.60;;
10729;SDS011;5416;59.258;18.128;2023-06-14T14:27:59;4.50;;;4.40;;
10729;SDS011;5416;59.258;18.128;2023-06-14T14:30:26;4.38;;;4.28;;
10729;SDS011;5416;59.258;18.128;2023-06-14T14:32:55;4.32;;;4.22;;
10729;SDS011;5416;59.258;18.128;2023-06-14T14:35:23;4.50;;;4.30;;
10729;SDS011;5416;59.258;18.128;2023-06-14T14:37:55;4.68;;;4.50;;
10729;SDS011;5416;59.258;18.128;2023-06-14T14:40:22;4.03;;;3.92;;
10729;SDS011;5416;59.258;18.128;2023-06-14T14:42:50;4.30;;;4.20;;
10729;SDS011;5416;59.258;18.128;2023-06-14T14:45:17;4.57;;;4.38;;
10729;SDS011;5416;59.258;18.128;2023-06-14T14:47:44;4.40;;;4.30;;
10729;SDS011;5416;59.258;18.128;2023-06-14T14:50:13;4.00;;;3.90;;
10729;SDS011;5416;59.258;18.128;2023-06-14T14:52:41;4.38;;;4.28;;
10729;SDS011;5416;59.258;18.128;2023-06-14T14:55:08;4.50;;;4.30;;
10729;SDS011;5416;59.258;18.128;2023-06-14T14:57:36;4.30;;;4.20;;
10729;SDS011;5416;59.258;18.128;2023-06-14T15:00:03;3.77;;;3.67;;